Time;durP1;ratioP1;P1;durP2;ratioP2;P2;SDS_P1;SDS_P2;PMS_P1;PMS_P2;Temp;Humidity;BMP_temperature;BMP_pressure;BME280_temperature;BME280_humidity;BME280_pressure;Samples;Min_cycle;Max_cycle;Signal;HPM_P1;HPM_P2
2022/09/07 00:00:19;;;;;;;11.18;6.60;;;18.60;99.90;;;;;;5023722;28;20030;-79
2022/09/07 00:02:45;;;;;;;11.57;7.80;;;18.60;99.90;;;;;;5025578;28;20030;-80
2022/09/07 00:05:11;;;;;;;11.45;7.43;;;18.60;99.90;;;;;;5021207;28;20065;-78
2022/09/07 00:07:36;;;;;;;14.38;7.72;;;18.50;99.90;;;;;;5019620;28;20089;-79
2022/09/07 00:10:02;;;;;;;9.68;6.65;;;18.50;99.90;;;;;;5024226;28;20037;-76
2022/09/07 00:12:28;;;;;;;10.20;7.55;;;18.50;99.90;;;;;;5026786;28;20029;-77
2022/09/07 00:14:54;;;;;;;11.32;8.50;;;18.50;99.90;;;;;;5027475;28;20030;-79
2022/09/07 00:17:20;;;;;;;13.15;7.05;;;18.50;99.90;;;;;;5008177;28;20022;-77
2022/09/07 00:19:47;;;;;;;9.93;7.18;;;18.40;99.90;;;;;;5023865;28;20125;-78
2022/09/07 00:22:12;;;;;;;11.13;7.72;;;18.50;99.90;;;;;;5025871;28;20083;-78
2022/09/07 00:24:38;;;;;;;12.23;8.13;;;18.50;99.90;;;;;;5022172;28;20030;-78
2022/09/07 00:27:04;;;;;;;19.73;8.88;;;18.50;99.90;;;;;;5018728;28;20097;-79
2022/09/07 00:29:30;;;;;;;14.05;8.38;;;18.40;99.90;;;;;;5018300;28;20413;-79
2022/09/07 00:31:56;;;;;;;11.40;7.70;;;18.40;99.90;;;;;;5015820;28;20026;-79
2022/09/07 00:34:21;;;;;;;10.95;7.72;;;18.30;99.90;;;;;;5003200;28;20034;-78
2022/09/07 00:36:47;;;;;;;13.85;7.82;;;18.30;99.90;;;;;;5018440;28;20025;-78
2022/09/07 00:39:13;;;;;;;13.07;7.25;;;18.30;99.90;;;;;;5000605;28;20058;-79
2022/09/07 00:41:39;;;;;;;10.80;8.02;;;18.30;99.90;;;;;;5019298;28;20129;-79
2022/09/07 00:44:42;;;;;;;10.30;7.53;;;18.30;99.90;;;;;;5004799;28;20094;-78
2022/09/07 00:47:11;;;;;;;12.68;7.88;;;18.30;99.90;;;;;;5028422;28;20065;-77
2022/09/07 00:49:38;;;;;;;12.50;7.82;;;18.20;99.90;;;;;;5028409;28;20064;-78
2022/09/07 00:52:06;;;;;;;11.43;7.68;;;18.30;99.90;;;;;;5005243;28;20034;-79
2022/09/07 00:54:46;;;;;;;10.70;7.32;;;18.20;99.90;;;;;;5019837;28;20025;-79
2022/09/07 00:57:13;;;;;;;11.45;8.00;;;18.30;99.90;;;;;;5022684;28;20101;-78
2022/09/07 00:59:43;;;;;;;10.57;7.43;;;18.20;99.90;;;;;;5018961;28;20558;-78
2022/09/07 01:02:11;;;;;;;11.05;6.95;;;18.20;99.90;;;;;;5002408;28;20025;-77
2022/09/07 01:04:38;;;;;;;10.13;7.68;;;18.10;99.90;;;;;;5019812;28;20026;-78
2022/09/07 01:07:04;;;;;;;8.80;7.05;;;18.10;99.90;;;;;;5018180;28;20072;-78
2022/09/07 01:09:31;;;;;;;10.35;7.32;;;18.20;99.90;;;;;;5020991;28;20022;-77
2022/09/07 01:11:59;;;;;;;10.52;7.63;;;18.10;99.90;;;;;;5026627;28;20294;-78
2022/09/07 01:14:48;;;;;;;8.70;7.50;;;18.10;99.90;;;;;;5007611;28;20042;-78
2022/09/07 01:17:55;;;;;;;9.77;7.68;;;18.10;99.90;;;;;;5002233;28;20033;-79
2022/09/07 01:20:33;;;;;;;12.25;8.00;;;18.00;99.90;;;;;;5019378;28;20113;-79
2022/09/07 01:23:25;;;;;;;12.52;7.85;;;18.00;99.90;;;;;;5015614;28;20026;-79
2022/09/07 01:25:51;;;;;;;12.75;8.50;;;18.00;99.90;;;;;;5011886;28;20049;-77
2022/09/07 01:28:31;;;;;;;11.55;8.38;;;17.90;99.90;;;;;;5013281;28;20018;-79
2022/09/07 01:31:10;;;;;;;11.80;9.25;;;17.90;99.90;;;;;;5016310;28;20041;-78
2022/09/07 01:33:46;;;;;;;12.30;8.95;;;17.90;99.90;;;;;;5001207;28;20030;-78
2022/09/07 01:36:38;;;;;;;11.38;8.73;;;17.80;99.90;;;;;;5021553;28;20037;-79
2022/09/07 01:39:05;;;;;;;11.73;9.40;;;17.70;99.90;;;;;;5015211;28;20034;-78
2022/09/07 01:41:38;;;;;;;12.40;9.52;;;17.70;99.90;;;;;;5016150;28;20081;-79
2022/09/07 01:44:09;;;;;;;13.30;8.40;;;17.60;99.90;;;;;;5014758;28;20043;-78
2022/09/07 01:47:03;;;;;;;12.25;9.15;;;17.60;99.90;;;;;;5015975;28;20081;-78
2022/09/07 01:49:37;;;;;;;13.38;9.00;;;17.60;99.90;;;;;;5019406;28;20018;-78
2022/09/07 01:52:12;;;;;;;13.82;9.70;;;17.70;99.90;;;;;;5003254;28;20038;-78
2022/09/07 01:54:40;;;;;;;;;;;17.70;99.90;;;;;;5025518;28;20088;-78
2022/09/07 01:57:15;;;;;;;14.68;10.40;;;17.70;99.90;;;;;;5010005;28;20333;-79
2022/09/07 01:59:46;;;;;;;12.35;10.00;;;17.60;99.90;;;;;;5026565;28;20056;-81
2022/09/07 02:02:16;;;;;;;13.85;9.90;;;17.70;99.90;;;;;;5010546;28;20034;-78
2022/09/07 02:04:58;;;;;;;12.38;9.30;;;17.70;99.90;;;;;;5010172;28;20382;-79
2022/09/07 02:07:47;;;;;;;13.75;9.02;;;17.70;99.90;;;;;;5017052;28;20088;-78
2022/09/07 02:10:20;;;;;;;13.90;9.68;;;17.80;99.90;;;;;;5023597;28;20076;-78
2022/09/07 02:13:18;;;;;;;13.52;9.50;;;17.80;99.90;;;;;;5020196;28;20025;-77
2022/09/07 02:15:49;;;;;;;13.00;9.40;;;17.80;99.90;;;;;;5030996;28;20044;-78
2022/09/07 02:18:15;;;;;;;14.23;10.07;;;17.70;99.90;;;;;;5027921;28;20022;-79
2022/09/07 02:20:47;;;;;;;15.68;10.27;;;17.70;99.90;;;;;;5007159;28;20040;-77
2022/09/07 02:23:20;;;;;;;13.55;9.52;;;17.60;99.90;;;;;;4985527;28;20041;-79
2022/09/07 02:25:54;;;;;;;12.52;9.65;;;17.60;99.90;;;;;;5022661;28;20052;-78
2022/09/07 02:28:27;;;;;;;13.20;9.52;;;17.50;99.90;;;;;;5025170;28;20054;-78
2022/09/07 02:30:52;;;;;;;16.10;9.77;;;17.50;99.90;;;;;;5030246;28;20146;-78
2022/09/07 02:33:18;;;;;;;15.07;10.35;;;17.50;99.90;;;;;;5033959;28;20037;-78
2022/09/07 02:35:45;;;;;;;13.30;10.23;;;17.40;99.90;;;;;;5031393;28;20064;-78
2022/09/07 02:38:11;;;;;;;15.32;10.75;;;17.40;99.90;;;;;;5026306;28;20371;-77
2022/09/07 02:40:37;;;;;;;21.63;10.35;;;17.40;99.90;;;;;;5024314;28;20374;-78
2022/09/07 02:43:07;;;;;;;12.60;10.07;;;17.40;99.90;;;;;;5019695;28;20053;-79
2022/09/07 02:46:08;;;;;;;12.88;9.35;;;17.40;99.90;;;;;;5019077;28;20037;-80
2022/09/07 02:48:43;;;;;;;10.73;8.95;;;17.50;99.90;;;;;;5004925;28;20506;-80
2022/09/07 02:51:27;;;;;;;13.68;9.20;;;17.70;99.90;;;;;;5002837;28;20034;-79
2022/09/07 02:54:14;;;;;;;15.68;8.85;;;18.00;99.90;;;;;;5002923;28;20034;-79
2022/09/07 02:57:15;;;;;;;14.27;9.48;;;18.30;99.90;;;;;;5002805;28;20088;-79
2022/09/07 02:59:48;;;;;;;15.00;10.20;;;18.30;99.90;;;;;;4995010;28;20038;-78
2022/09/07 03:02:17;;;;;;;12.32;8.70;;;18.40;99.90;;;;;;5021930;28;20053;-78
2022/09/07 03:05:12;;;;;;;15.02;9.77;;;18.40;99.90;;;;;;5025088;28;20398;-80
2022/09/07 03:07:58;;;;;;;16.55;9.85;;;18.40;99.90;;;;;;5010353;28;20074;-78
2022/09/07 03:10:24;;;;;;;13.13;10.15;;;18.30;99.90;;;;;;4998428;28;20022;-78
2022/09/07 03:12:50;;;;;;;18.92;9.80;;;18.20;99.90;;;;;;5019338;28;20022;-80
2022/09/07 03:15:20;;;;;;;14.43;9.77;;;18.20;99.90;;;;;;5019486;28;20033;-78
2022/09/07 03:17:46;;;;;;;21.00;11.60;;;18.30;99.90;;;;;;5022574;28;20021;-79
2022/09/07 03:20:15;;;;;;;16.58;10.77;;;18.40;99.90;;;;;;5002232;28;20460;-78
2022/09/07 03:22:41;;;;;;;18.40;11.73;;;18.20;99.90;;;;;;5020389;28;20049;-78
2022/09/07 03:25:07;;;;;;;21.48;13.57;;;18.10;99.90;;;;;;5019310;28;20046;-79
2022/09/07 03:27:33;;;;;;;21.38;14.90;;;18.00;99.90;;;;;;5018998;28;20076;-80
2022/09/07 03:30:00;;;;;;;24.73;15.25;;;17.70;99.90;;;;;;5019077;28;20030;-79
2022/09/07 03:32:31;;;;;;;23.23;16.52;;;17.60;99.90;;;;;;5019393;28;20033;-79
2022/09/07 03:34:57;;;;;;;26.42;18.02;;;17.50;99.90;;;;;;5002194;28;20037;-79
2022/09/07 03:37:24;;;;;;;25.45;18.88;;;17.30;99.90;;;;;;5020010;28;20140;-78
2022/09/07 03:39:50;;;;;;;25.58;16.00;;;17.20;99.90;;;;;;5019037;28;20332;-78
2022/09/07 03:42:16;;;;;;;22.60;15.63;;;17.10;99.90;;;;;;5019213;28;20613;-79
2022/09/07 03:44:42;;;;;;;25.58;17.10;;;17.20;99.90;;;;;;5019646;28;20057;-77
2022/09/07 03:47:08;;;;;;;20.23;14.80;;;17.20;99.90;;;;;;5022683;28;20072;-78
2022/09/07 03:49:33;;;;;;;21.63;15.05;;;17.10;99.90;;;;;;5017459;28;20064;-78
2022/09/07 03:51:59;;;;;;;23.90;16.65;;;17.30;99.90;;;;;;5017781;28;20141;-80
2022/09/07 03:54:25;;;;;;;26.08;18.58;;;17.30;99.90;;;;;;5018321;28;20533;-80
2022/09/07 03:56:51;;;;;;;25.42;16.50;;;17.20;99.90;;;;;;5028540;28;20007;-78
2022/09/07 03:59:17;;;;;;;22.58;17.23;;;17.20;99.90;;;;;;5028144;28;20025;-78
2022/09/07 04:01:42;;;;;;;31.80;17.58;;;17.10;99.90;;;;;;5011623;28;20034;-79
2022/09/07 04:04:08;;;;;;;32.63;18.95;;;17.10;99.90;;;;;;5013733;28;20070;-79
2022/09/07 04:06:34;;;;;;;25.92;18.77;;;17.00;99.90;;;;;;5029501;28;20075;-78
2022/09/07 04:09:02;;;;;;;26.77;19.05;;;17.00;99.90;;;;;;5028600;28;20165;-78
2022/09/07 04:11:28;;;;;;;26.73;18.35;;;16.90;99.90;;;;;;5029420;28;20049;-78
2022/09/07 04:13:54;;;;;;;23.90;17.40;;;16.90;99.90;;;;;;5012341;28;20030;-78
2022/09/07 04:16:23;;;;;;;31.40;18.33;;;17.00;99.90;;;;;;5031488;28;20103;-78
2022/09/07 04:18:50;;;;;;;34.90;21.83;;;17.00;99.90;;;;;;5027093;28;20028;-78
2022/09/07 04:21:17;;;;;;;25.77;17.85;;;17.10;99.90;;;;;;5006866;28;20029;-77
2022/09/07 04:23:44;;;;;;;38.55;20.95;;;17.10;99.90;;;;;;5023784;28;20053;-78
2022/09/07 04:26:15;;;;;;;27.05;18.40;;;17.10;99.90;;;;;;5028886;28;20080;-79
2022/09/07 04:28:41;;;;;;;30.23;20.42;;;17.00;99.90;;;;;;5022980;28;20370;-79
2022/09/07 04:31:07;;;;;;;32.90;24.15;;;16.90;99.90;;;;;;5024200;28;20026;-79
2022/09/07 04:33:33;;;;;;;39.60;26.63;;;16.90;99.90;;;;;;5004182;28;20042;-78
2022/09/07 04:36:00;;;;;;;29.92;20.35;;;16.90;99.90;;;;;;5002876;28;20093;-80
2022/09/07 04:38:26;;;;;;;29.25;16.90;;;16.80;99.90;;;;;;5021565;28;20029;-80
2022/09/07 04:41:08;;;;;;;22.95;16.33;;;16.90;99.90;;;;;;5021881;28;20356;-79
2022/09/07 04:43:35;;;;;;;22.60;15.93;;;16.90;99.90;;;;;;5020573;28;20018;-78
2022/09/07 04:46:19;;;;;;;22.20;14.40;;;16.90;99.90;;;;;;5019107;28;20089;-78
2022/09/07 04:48:49;;;;;;;19.63;14.80;;;17.00;99.90;;;;;;5017935;28;20401;-77
2022/09/07 04:51:16;;;;;;;17.15;12.52;;;17.00;99.90;;;;;;5018565;28;20053;-79
2022/09/07 04:53:42;;;;;;;19.58;13.38;;;17.20;99.90;;;;;;5021354;28;20038;-77
2022/09/07 04:56:08;;;;;;;23.52;14.60;;;17.30;99.90;;;;;;5030434;28;20089;-79
2022/09/07 04:58:35;;;;;;;34.17;13.73;;;17.30;99.90;;;;;;5030775;28;20026;-78
2022/09/07 05:01:03;;;;;;;18.10;12.07;;;17.40;99.90;;;;;;5012450;28;20014;-77
2022/09/07 05:03:30;;;;;;;21.50;12.70;;;17.50;99.90;;;;;;5008105;28;20056;-79
2022/09/07 05:05:56;;;;;;;18.38;13.05;;;17.50;99.90;;;;;;5002650;28;20125;-80
2022/09/07 05:08:22;;;;;;;24.80;13.93;;;17.50;99.90;;;;;;5020026;28;20077;-78
2022/09/07 05:10:52;;;;;;;18.13;13.15;;;17.50;99.90;;;;;;5024669;28;20034;-78
2022/09/07 05:13:18;;;;;;;21.50;12.88;;;17.60;99.90;;;;;;5018715;28;20027;-78
2022/09/07 05:15:44;;;;;;;16.27;12.18;;;17.70;99.90;;;;;;5012911;28;20587;-79
2022/09/07 05:18:12;;;;;;;22.10;12.68;;;17.80;99.90;;;;;;4980865;28;20460;-82
2022/09/07 05:20:41;;;;;;;21.58;14.95;;;17.80;99.90;;;;;;5009245;28;20046;-81
2022/09/07 05:23:07;;;;;;;25.20;14.15;;;17.80;99.90;;;;;;5008466;28;20014;-81
2022/09/07 05:25:34;;;;;;;22.65;14.40;;;17.80;99.90;;;;;;5007497;28;20045;-80
2022/09/07 05:28:00;;;;;;;18.67;13.63;;;17.70;99.90;;;;;;4985091;28;20030;-81
2022/09/07 05:30:26;;;;;;;20.92;14.82;;;17.60;99.90;;;;;;4987743;28;20041;-79
2022/09/07 05:32:52;;;;;;;24.55;15.05;;;17.70;99.90;;;;;;4986326;28;20030;-80
2022/09/07 05:35:18;;;;;;;21.17;14.20;;;17.70;99.90;;;;;;5005300;28;20042;-80
2022/09/07 05:37:49;;;;;;;21.05;14.23;;;17.60;99.90;;;;;;5002871;28;20046;-79
2022/09/07 05:40:15;;;;;;;20.20;13.00;;;17.60;99.90;;;;;;4998049;28;20039;-81
2022/09/07 05:42:41;;;;;;;20.27;13.57;;;17.60;99.90;;;;;;5004452;28;20057;-79
2022/09/07 05:45:07;;;;;;;17.80;13.35;;;17.60;99.90;;;;;;5010419;28;20030;-78
2022/09/07 05:47:36;;;;;;;19.15;13.73;;;17.60;99.90;;;;;;5007487;28;20040;-80
2022/09/07 05:50:07;;;;;;;16.92;12.68;;;17.70;99.90;;;;;;5010223;28;20093;-79
2022/09/07 05:52:34;;;;;;;16.70;12.07;;;17.80;99.90;;;;;;5007149;28;20030;-80
2022/09/07 05:55:01;;;;;;;18.73;12.90;;;18.00;99.90;;;;;;5028375;28;20030;-79
2022/09/07 05:57:26;;;;;;;21.40;13.52;;;18.00;99.90;;;;;;5028575;28;20033;-78
2022/09/07 05:59:52;;;;;;;21.80;13.15;;;18.00;99.90;;;;;;5022262;28;20081;-78
2022/09/07 06:02:19;;;;;;;26.25;14.13;;;18.20;99.90;;;;;;5009995;28;20320;-80
2022/09/07 06:04:46;;;;;;;26.23;14.82;;;18.30;99.90;;;;;;4992525;28;20045;-79
2022/09/07 06:07:13;;;;;;;28.17;14.18;;;18.30;99.90;;;;;;5008644;28;20034;-79
2022/09/07 06:09:39;;;;;;;18.33;14.13;;;18.40;99.90;;;;;;4984103;28;20030;-81
2022/09/07 06:12:06;;;;;;;22.52;14.73;;;18.50;99.90;;;;;;4983459;28;20090;-80
2022/09/07 06:14:34;;;;;;;28.60;14.20;;;18.60;99.90;;;;;;4983524;28;20027;-79
2022/09/07 06:17:00;;;;;;;22.35;14.70;;;18.60;99.90;;;;;;5001871;28;20521;-81
2022/09/07 06:19:26;;;;;;;21.17;13.80;;;18.70;99.90;;;;;;5003242;28;20026;-79
2022/09/07 06:21:52;;;;;;;20.10;13.88;;;18.80;99.90;;;;;;5022596;28;20030;-79
2022/09/07 06:24:18;;;;;;;23.40;15.65;;;18.90;99.90;;;;;;5027581;28;20018;-79
2022/09/07 06:26:45;;;;;;;19.20;14.70;;;18.80;99.90;;;;;;5031857;28;20029;-78
2022/09/07 06:29:11;;;;;;;20.75;14.43;;;18.70;99.90;;;;;;5026595;28;20038;-80
2022/09/07 06:31:37;;;;;;;20.10;14.52;;;18.60;99.90;;;;;;5007513;28;20026;-79
2022/09/07 06:34:03;;;;;;;20.30;15.80;;;18.70;99.90;;;;;;5031631;28;20055;-78
2022/09/07 06:36:28;;;;;;;20.83;15.52;;;18.70;99.90;;;;;;5032813;28;20026;-78
2022/09/07 06:38:57;;;;;;;33.17;16.75;;;18.60;99.90;;;;;;5032481;28;20033;-79
2022/09/07 06:41:30;;;;;;;17.42;13.10;;;18.70;99.90;;;;;;5015655;28;20438;-81
2022/09/07 06:43:57;;;;;;;26.10;15.55;;;18.80;99.90;;;;;;5007656;28;20406;-80
2022/09/07 06:46:24;;;;;;;21.27;13.23;;;19.00;99.90;;;;;;5028680;28;20025;-80
2022/09/07 06:48:54;;;;;;;14.85;9.75;;;19.10;99.90;;;;;;5015460;28;20026;-82
2022/09/07 06:51:25;;;;;;;19.17;13.10;;;19.60;99.90;;;;;;5036688;28;20025;-79
2022/09/07 06:53:55;;;;;;;21.85;11.98;;;20.00;99.90;;;;;;5033758;28;20045;-81
2022/09/07 06:56:22;;;;;;;19.48;13.65;;;20.00;99.90;;;;;;5025061;28;20486;-79
2022/09/07 06:58:53;;;;;;;15.02;10.60;;;20.10;99.90;;;;;;5022169;28;20022;-79
2022/09/07 07:01:22;;;;;;;16.10;10.73;;;20.30;99.90;;;;;;4990771;28;20471;-81
2022/09/07 07:03:50;;;;;;;16.40;11.55;;;20.50;99.90;;;;;;5006462;28;20018;-81
2022/09/07 07:06:16;;;;;;;16.85;7.97;;;20.80;99.90;;;;;;5026635;28;20030;-80
2022/09/07 07:08:42;;;;;;;12.15;7.35;;;20.90;99.90;;;;;;5030743;28;20034;-80
2022/09/07 07:11:13;;;;;;;23.63;12.05;;;21.20;99.90;;;;;;5033189;28;20038;-80
2022/09/07 07:13:41;;;;;;;15.95;9.90;;;21.30;99.90;;;;;;5032389;28;20064;-78
2022/09/07 07:16:15;;;;;;;14.77;8.98;;;21.30;99.90;;;;;;4996732;28;20089;-79
2022/09/07 07:18:42;;;;;;;14.57;10.17;;;21.40;99.90;;;;;;5014372;28;20033;-80
2022/09/07 07:21:15;;;;;;;14.55;10.88;;;21.50;99.90;;;;;;5023160;28;20345;-79
2022/09/07 07:23:41;;;;;;;22.80;10.85;;;21.60;99.90;;;;;;5020462;28;20029;-79
2022/09/07 07:26:14;;;;;;;17.50;11.65;;;21.70;99.90;;;;;;5019716;28;20030;-79
2022/09/07 07:28:49;;;;;;;21.40;13.15;;;21.80;99.90;;;;;;5013603;28;20034;-82
2022/09/07 07:31:17;;;;;;;16.27;12.80;;;21.60;99.90;;;;;;5017770;28;20038;-81
2022/09/07 07:33:45;;;;;;;20.38;13.55;;;21.50;99.90;;;;;;5001733;28;20030;-81
2022/09/07 07:36:11;;;;;;;18.13;13.93;;;21.40;99.90;;;;;;5006782;28;20151;-83
2022/09/07 07:38:38;;;;;;;21.63;13.90;;;21.30;99.90;;;;;;4984921;28;20493;-84
2022/09/07 07:41:04;;;;;;;20.42;13.73;;;21.20;99.90;;;;;;5007762;28;20095;-83
2022/09/07 07:43:30;;;;;;;17.88;12.75;;;21.20;99.90;;;;;;4997934;28;20053;-81
2022/09/07 07:46:34;;;;;;;20.70;12.85;;;21.20;99.90;;;;;;5017911;28;20106;-82
2022/09/07 07:49:00;;;;;;;22.45;13.35;;;21.30;99.90;;;;;;5018652;28;20030;-81
2022/09/07 07:51:25;;;;;;;20.90;13.82;;;21.20;99.90;;;;;;5017850;28;20117;-82
2022/09/07 07:53:51;;;;;;;23.92;12.93;;;21.20;99.90;;;;;;5001475;28;20034;-81
2022/09/07 07:56:17;;;;;;;24.17;13.27;;;21.30;99.90;;;;;;5015688;28;20042;-82
2022/09/07 07:58:46;;;;;;;21.65;12.93;;;21.30;99.90;;;;;;4986730;28;20042;-83
2022/09/07 08:01:15;;;;;;;20.40;13.15;;;21.40;99.90;;;;;;5001446;28;20022;-81
2022/09/07 08:03:42;;;;;;;15.00;12.15;;;21.40;99.90;;;;;;4999317;28;20039;-83
2022/09/07 08:06:12;;;;;;;21.30;13.45;;;21.40;99.90;;;;;;4983619;28;20104;-83
2022/09/07 08:08:38;;;;;;;22.40;14.98;;;21.50;99.90;;;;;;4984828;28;20125;-81
2022/09/07 08:11:07;;;;;;;20.08;12.90;;;21.60;99.90;;;;;;5003356;28;20030;-82
2022/09/07 08:13:39;;;;;;;20.63;12.40;;;21.70;99.90;;;;;;5003993;28;20226;-82
2022/09/07 08:16:05;;;;;;;20.75;13.32;;;21.80;99.90;;;;;;4999839;28;20027;-84
2022/09/07 08:18:35;;;;;;;21.35;13.25;;;21.80;99.90;;;;;;4999729;28;20026;-82
2022/09/07 08:21:03;;;;;;;26.63;13.88;;;21.90;99.90;;;;;;4999841;28;20034;-83
2022/09/07 08:23:30;;;;;;;22.13;12.82;;;21.80;99.90;;;;;;4999732;28;20019;-83
2022/09/07 08:25:57;;;;;;;20.90;13.35;;;21.90;99.90;;;;;;4981630;28;20105;-83
2022/09/07 08:28:26;;;;;;;25.65;13.60;;;22.00;99.90;;;;;;4999445;28;20030;-84
2022/09/07 08:30:52;;;;;;;20.15;13.23;;;21.80;99.90;;;;;;5001398;28;20482;-83
2022/09/07 08:33:18;;;;;;;17.13;12.05;;;21.80;99.90;;;;;;4999719;28;20030;-83
2022/09/07 08:36:06;;;;;;;23.38;13.48;;;21.80;99.90;;;;;;4965191;28;20777;-84
2022/09/07 08:38:34;;;;;;;20.50;12.93;;;22.00;99.90;;;;;;4998800;28;20105;-83
2022/09/07 08:41:01;;;;;;;21.00;13.60;;;22.20;99.90;;;;;;4998964;28;20022;-83
2022/09/07 08:43:52;;;;;;;21.10;15.55;;;22.20;99.90;;;;;;4999543;28;20031;-83
2022/09/07 08:46:31;;;;;;;19.88;14.10;;;22.20;99.90;;;;;;5011093;28;20042;-82
2022/09/07 08:49:00;;;;;;;18.80;12.90;;;22.40;99.90;;;;;;4994663;28;20030;-82
2022/09/07 08:51:53;;;;;;;17.77;12.07;;;22.50;99.90;;;;;;5013548;28;20045;-81
2022/09/07 08:54:19;;;;;;;15.60;11.95;;;22.50;99.90;;;;;;4994452;28;20058;-83
2022/09/07 08:56:50;;;;;;;13.32;10.60;;;22.60;99.90;;;;;;4993317;28;20023;-81
2022/09/07 08:59:30;;;;;;;17.38;11.90;;;22.70;99.90;;;;;;5007055;28;20038;-83
2022/09/07 09:01:55;;;;;;;20.55;11.63;;;22.90;99.90;;;;;;5012219;28;20077;-81
2022/09/07 09:04:27;;;;;;;19.80;11.73;;;22.90;99.90;;;;;;5000971;28;20034;-82
2022/09/07 09:07:12;;;;;;;18.65;12.32;;;23.00;99.90;;;;;;5017169;28;20045;-82
2022/09/07 09:09:47;;;;;;;18.17;11.43;;;23.20;99.90;;;;;;5015806;28;20031;-81
2022/09/07 09:12:30;;;;;;;22.30;10.70;;;23.40;99.90;;;;;;5003908;28;20038;-83
2022/09/07 09:15:19;;;;;;;15.55;10.55;;;24.00;99.90;;;;;;4998413;28;20446;-83
2022/09/07 09:18:04;;;;;;;15.93;8.85;;;24.80;99.90;;;;;;4999872;28;20124;-82
2022/09/07 09:20:52;;;;;;;16.42;9.05;;;25.60;99.90;;;;;;4997263;28;20057;-82
2022/09/07 09:23:23;;;;;;;15.15;9.43;;;26.80;99.90;;;;;;4997199;28;20073;-82
2022/09/07 09:25:54;;;;;;;12.60;8.88;;;26.90;99.90;;;;;;4988966;28;20039;-82
2022/09/07 09:28:20;;;;;;;13.85;8.75;;;27.60;99.90;;;;;;5016338;28;20019;-83
2022/09/07 09:30:47;;;;;;;15.63;7.47;;;28.80;99.90;;;;;;5014551;28;20086;-83
2022/09/07 09:33:20;;;;;;;12.77;6.95;;;29.70;99.20;;;;;;4992160;28;20065;-83
2022/09/07 09:35:48;;;;;;;12.60;7.25;;;31.10;97.10;;;;;;5008532;28;20047;-82
2022/09/07 09:38:28;;;;;;;11.27;6.20;;;31.90;94.70;;;;;;5000854;28;20065;-84
2022/09/07 09:40:55;;;;;;;9.63;5.28;;;32.80;93.10;;;;;;4997755;28;20034;-83
2022/09/07 09:43:24;;;;;;;5.72;4.72;;;34.20;91.30;;;;;;4980351;28;20106;-86
2022/09/07 09:45:53;;;;;;;12.23;5.93;;;35.20;88.00;;;;;;4980938;28;20045;-84
2022/09/07 09:48:31;;;;;;;10.98;5.45;;;36.00;83.80;;;;;;4997447;28;20026;-83
2022/09/07 09:50:58;;;;;;;9.95;6.38;;;36.40;80.80;;;;;;5002923;28;20057;-83
2022/09/07 09:53:52;;;;;;;10.75;5.50;;;35.90;79.30;;;;;;5004347;28;20505;-84
2022/09/07 09:56:18;;;;;;;10.75;5.35;;;36.10;78.60;;;;;;5004411;28;20061;-82
2022/09/07 09:58:46;;;;;;;7.78;4.82;;;36.60;77.00;;;;;;5010690;28;20065;-83
2022/09/07 10:01:41;;;;;;;9.75;5.90;;;36.90;76.10;;;;;;5010994;28;20090;-81
2022/09/07 10:04:22;;;;;;;8.75;5.93;;;37.00;74.10;;;;;;5001132;28;20046;-83
2022/09/07 10:07:05;;;;;;;8.10;5.20;;;37.00;74.10;;;;;;5007182;28;20026;-82
2022/09/07 10:09:38;;;;;;;9.60;5.47;;;36.90;73.80;;;;;;5007117;28;20033;-83
2022/09/07 10:12:05;;;;;;;5.53;4.55;;;37.00;73.10;;;;;;5007459;28;20043;-84
2022/09/07 10:14:31;;;;;;;6.43;4.63;;;37.60;71.90;;;;;;4987174;28;20023;-84
2022/09/07 10:16:58;;;;;;;9.13;5.40;;;38.10;71.20;;;;;;5002456;28;20022;-85
2022/09/07 10:19:36;;;;;;;7.32;5.90;;;38.80;69.50;;;;;;4985142;28;20045;-85
2022/09/07 10:22:19;;;;;;;10.40;5.40;;;38.80;68.30;;;;;;5003517;28;20642;-87
2022/09/07 10:24:45;;;;;;;6.60;5.33;;;39.00;67.50;;;;;;5003554;28;20053;-85
2022/09/07 10:27:32;;;;;;;10.07;5.32;;;39.00;67.10;;;;;;5002224;28;20375;-84
2022/09/07 10:29:59;;;;;;;7.80;4.53;;;39.30;66.10;;;;;;5001869;28;20061;-84
2022/09/07 10:32:34;;;;;;;8.02;5.40;;;39.00;66.20;;;;;;5003281;28;20080;-83
2022/09/07 10:35:38;;;;;;;5.20;4.43;;;37.90;67.00;;;;;;4986051;28;20057;-84
2022/09/07 10:38:15;;;;;;;9.50;5.03;;;38.80;66.30;;;;;;4952582;28;20046;-83
2022/09/07 10:40:50;;;;;;;15.20;5.32;;;39.00;65.40;;;;;;4984756;28;20045;-82
2022/09/07 10:43:43;;;;;;;6.78;4.75;;;37.50;66.40;;;;;;5005371;28;20507;-85
2022/09/07 10:46:32;;;;;;;9.75;4.65;;;36.40;68.10;;;;;;5003967;28;20042;-85
2022/09/07 10:49:32;;;;;;;8.68;5.22;;;36.50;68.40;;;;;;5001461;28;20382;-83
2022/09/07 10:52:16;;;;;;;5.93;4.90;;;36.60;68.30;;;;;;5000402;28;20026;-82
2022/09/07 10:55:14;;;;;;;9.25;4.60;;;37.80;67.10;;;;;;4983501;28;20034;-85
2022/09/07 10:58:12;;;;;;;6.57;4.88;;;38.40;66.00;;;;;;4983248;28;20046;-83
2022/09/07 11:01:16;;;;;;;13.70;5.22;;;39.10;65.10;;;;;;5004250;28;20042;-84
2022/09/07 11:04:06;;;;;;;6.63;5.15;;;39.90;64.80;;;;;;4994425;28;20058;-83
2022/09/07 11:06:40;;;;;;;5.55;4.43;;;40.30;62.90;;;;;;5000712;28;20055;-83
2022/09/07 11:09:28;;;;;;;5.88;4.25;;;40.30;63.00;;;;;;4983242;28;20105;-84
2022/09/07 11:12:07;;;;;;;4.32;3.63;;;40.60;61.80;;;;;;4984690;28;20045;-85
2022/09/07 11:15:06;;;;;;;7.03;3.60;;;40.40;62.20;;;;;;5005097;28;20036;-83
2022/09/07 11:17:44;;;;;;;6.43;4.60;;;41.10;61.80;;;;;;5009098;28;20030;-83
2022/09/07 11:20:32;;;;;;;9.60;4.28;;;41.40;60.30;;;;;;5008938;28;20123;-82
2022/09/07 11:23:19;;;;;;;7.63;4.57;;;41.20;60.50;;;;;;4988183;28;20075;-83
2022/09/07 11:26:14;;;;;;;7.80;4.57;;;41.60;59.50;;;;;;5003090;28;20100;-83
2022/09/07 11:28:54;;;;;;;11.15;4.32;;;40.60;60.00;;;;;;4991729;28;20030;-84
2022/09/07 11:31:35;;;;;;;4.38;3.97;;;40.50;60.70;;;;;;5002745;28;20057;-84
2022/09/07 11:34:03;;;;;;;8.73;4.43;;;41.30;59.60;;;;;;4983510;28;20034;-85
2022/09/07 11:36:39;;;;;;;9.77;4.90;;;41.00;59.40;;;;;;5001523;28;20106;-84
2022/09/07 11:39:10;;;;;;;7.55;4.40;;;41.10;59.10;;;;;;4981436;28;20030;-84
2022/09/07 11:41:43;;;;;;;7.13;4.45;;;41.20;58.70;;;;;;5001041;28;20041;-83
2022/09/07 11:44:31;;;;;;;7.43;4.30;;;41.10;59.20;;;;;;4985086;28;20049;-83
2022/09/07 11:47:03;;;;;;;4.28;3.85;;;42.20;58.30;;;;;;4991358;28;20261;-83
2022/09/07 11:49:29;;;;;;;10.68;4.03;;;42.80;57.10;;;;;;5001630;28;20142;-85
2022/09/07 11:52:23;;;;;;;7.88;4.43;;;42.90;56.70;;;;;;5000340;28;20018;-83
2022/09/07 11:55:00;;;;;;;8.40;3.50;;;42.90;56.50;;;;;;4999961;28;20106;-83
2022/09/07 11:57:35;;;;;;;6.22;4.00;;;42.80;56.40;;;;;;4984726;28;20034;-82
2022/09/07 12:00:07;;;;;;;7.00;3.90;;;43.60;55.50;;;;;;5013617;28;20026;-83
2022/09/07 12:03:06;;;;;;;5.75;3.92;;;44.20;55.20;;;;;;5012401;28;20041;-83
2022/09/07 12:05:40;;;;;;;12.05;4.45;;;44.10;54.60;;;;;;4988567;28;20034;-84
2022/09/07 12:08:09;;;;;;;8.68;3.92;;;44.00;54.50;;;;;;4986575;28;20030;-85
2022/09/07 12:14:37;;;;;;;8.40;4.00;;;44.10;54.20;;;;;;5002862;28;20061;-83
2022/09/07 12:17:33;;;;;;;5.57;3.83;;;44.90;53.50;;;;;;5004653;28;20034;-84
2022/09/07 12:20:20;;;;;;;5.50;4.50;;;44.70;53.00;;;;;;5009428;28;20058;-84
2022/09/07 12:23:03;;;;;;;4.95;3.83;;;44.30;53.40;;;;;;5011742;28;20118;-83
2022/09/07 12:25:30;;;;;;;5.75;4.20;;;44.40;53.40;;;;;;5013125;28;20090;-83
2022/09/07 12:27:56;;;;;;;7.00;3.72;;;44.50;52.90;;;;;;4994690;28;20386;-82
2022/09/07 12:30:22;;;;;;;8.25;4.18;;;44.90;52.70;;;;;;5011695;28;20090;-83
2022/09/07 12:32:54;;;;;;;4.75;3.65;;;44.70;52.10;;;;;;5011937;28;20476;-83
2022/09/07 12:35:29;;;;;;;7.25;4.18;;;44.00;52.80;;;;;;5006824;28;20101;-83
2022/09/07 12:38:00;;;;;;;5.45;4.03;;;44.50;52.50;;;;;;4983152;28;20026;-83
2022/09/07 12:40:36;;;;;;;8.82;4.47;;;43.70;52.30;;;;;;5005860;28;20027;-83
2022/09/07 12:43:14;;;;;;;7.88;3.70;;;43.70;52.80;;;;;;5003020;28;20088;-83
2022/09/07 12:45:40;;;;;;;5.30;4.10;;;44.20;52.30;;;;;;5005131;28;20062;-83
2022/09/07 12:48:15;;;;;;;6.22;3.60;;;44.10;52.10;;;;;;5005966;28;20022;-82
2022/09/07 12:50:53;;;;;;;7.65;3.50;;;44.10;51.90;;;;;;5003647;28;20551;-83
2022/09/07 12:53:33;;;;;;;5.55;3.88;;;44.70;51.50;;;;;;5001964;28;20053;-82
2022/09/07 12:56:11;;;;;;;6.13;4.10;;;45.40;51.10;;;;;;4998828;28;20042;-84
2022/09/07 12:58:46;;;;;;;4.32;3.75;;;45.70;50.10;;;;;;5002521;28;20113;-83
2022/09/07 13:01:32;;;;;;;5.93;3.65;;;46.00;50.00;;;;;;4987761;28;20403;-86
2022/09/07 13:04:22;;;;;;;7.72;3.63;;;45.30;50.20;;;;;;5006417;28;20034;-83
2022/09/07 13:07:23;;;;;;;6.78;3.25;;;44.70;50.40;;;;;;4971145;28;20046;-86